Salkehatchie, South Carolina
Current Conditions -  °F | °C
As of 7:56 AM on Wednesday 22 Oct 2014 (Local Time) from KNBC Reporting Station
Clear Clear  
Wind Chill: 54°   Ceiling: Unl
Heat Index: 54°   Visibility: 10mi
Dew Point: 45°   Wind: 9mph
Humidity: 72%   Direction: 360°N
Pressure: 30.03"   Gusts: NA
Location:  32.642°N, 80.8085°W
Report Text: KNBC 221156Z AUTO 36008KT 10SM CLR 12/07 A3003 RMK AO2 SLP169 7//// T01220072 10172 20122 51022 $
Loading
Personal Weather Stations






























Interactive Weather Map
Tropical Storm Tracking
New forecast layout! Learn more

10-Day Weather Forecast

Advertisements
Track Severe Weather on mobile